Time;durP1;ratioP1;P1;durP2;ratioP2;P2;SDS_P1;SDS_P2;PMS_P1;PMS_P2;Temp;Humidity;BMP_temperature;BMP_pressure;BME280_temperature;BME280_humidity;BME280_pressure;Samples;Min_cycle;Max_cycle;Signal;HPM_P1;HPM_P2
2022/12/24 00:01:54;;;;;;;8.77;2.60;;;1.80;83.00;;;;;;4186596;28;20083;-86
2022/12/24 00:04:13;;;;;;;8.27;2.40;;;1.80;83.00;;;;;;4185864;28;20151;-87
2022/12/24 00:06:32;;;;;;;7.63;2.42;;;1.80;83.00;;;;;;4185226;28;20086;-86
2022/12/24 00:08:52;;;;;;;8.82;2.70;;;1.80;83.20;;;;;;4187299;28;20051;-86
2022/12/24 00:11:11;;;;;;;9.68;2.45;;;1.80;83.20;;;;;;4186445;28;20498;-86
2022/12/24 00:13:30;;;;;;;7.80;2.45;;;1.80;83.30;;;;;;4188929;28;20498;-86
2022/12/24 00:15:49;;;;;;;8.02;2.72;;;1.80;83.50;;;;;;4188988;28;20464;-87
2022/12/24 00:18:08;;;;;;;10.50;2.88;;;1.80;83.70;;;;;;4187236;28;20036;-87
2022/12/24 00:20:27;;;;;;;8.27;2.65;;;1.80;83.80;;;;;;4188796;28;20042;-87
2022/12/24 00:22:47;;;;;;;7.30;1.92;;;1.80;83.60;;;;;;4206553;28;20067;-86
2022/12/24 00:25:06;;;;;;;8.23;2.38;;;1.90;83.50;;;;;;4211008;28;20104;-87
2022/12/24 00:27:26;;;;;;;5.57;2.05;;;1.90;83.40;;;;;;4207247;28;20032;-86
2022/12/24 00:29:45;;;;;;;8.82;2.60;;;1.90;83.30;;;;;;4207891;28;20140;-87
2022/12/24 00:32:08;;;;;;;12.23;2.50;;;1.90;83.20;;;;;;4183948;28;20043;-87
2022/12/24 00:34:27;;;;;;;8.52;2.17;;;1.90;83.20;;;;;;4186609;28;20136;-86
2022/12/24 00:36:46;;;;;;;6.53;1.95;;;1.90;83.50;;;;;;4188569;28;20039;-89
2022/12/24 00:39:05;;;;;;;9.57;2.25;;;1.90;83.80;;;;;;4187124;28;20528;-87
2022/12/24 00:41:24;;;;;;;6.18;2.22;;;1.90;83.80;;;;;;4185029;28;20109;-88
2022/12/24 00:43:44;;;;;;;6.38;2.35;;;1.90;83.80;;;;;;4183022;28;20055;-87
2022/12/24 00:46:03;;;;;;;16.02;2.47;;;1.90;83.70;;;;;;4182733;28;20036;-87
2022/12/24 00:48:22;;;;;;;7.20;2.50;;;1.90;83.70;;;;;;4189933;28;20040;-87
2022/12/24 00:50:41;;;;;;;12.52;2.65;;;1.90;83.70;;;;;;4184972;28;20040;-87
2022/12/24 00:53:00;;;;;;;10.48;2.70;;;1.90;83.80;;;;;;4183252;28;20047;-87
2022/12/24 00:55:19;;;;;;;13.88;2.38;;;1.90;83.80;;;;;;4187013;28;20163;-87
2022/12/24 00:57:38;;;;;;;8.27;2.72;;;1.90;84.00;;;;;;4187962;28;20067;-87
2022/12/24 00:59:57;;;;;;;6.75;2.03;;;1.90;83.90;;;;;;4185297;28;20039;-87
2022/12/24 01:02:16;;;;;;;4.57;2.28;;;1.90;83.70;;;;;;4188833;28;20039;-86
2022/12/24 01:07:13;;;;;;;5.32;1.88;;;1.90;83.40;;;;;;4184706;28;20047;-87
2022/12/24 01:09:32;;;;;;;8.20;1.80;;;1.80;83.70;;;;;;4184831;28;20067;-87
2022/12/24 01:11:51;;;;;;;5.57;2.00;;;1.80;83.50;;;;;;4186227;28;20058;-87
2022/12/24 01:14:10;;;;;;;8.73;2.03;;;1.80;83.40;;;;;;4187118;28;20081;-87
2022/12/24 01:16:29;;;;;;;7.70;2.00;;;1.80;83.40;;;;;;4187603;28;20440;-87
2022/12/24 01:18:48;;;;;;;5.25;1.77;;;1.80;83.50;;;;;;4186110;28;20051;-87
2022/12/24 01:21:08;;;;;;;13.07;2.13;;;1.80;83.30;;;;;;4184457;28;20059;-87
2022/12/24 01:23:28;;;;;;;10.55;2.15;;;1.80;83.20;;;;;;4187121;28;20066;-87
2022/12/24 01:25:47;;;;;;;7.25;1.83;;;1.80;83.00;;;;;;4185624;28;20043;-86
2022/12/24 01:28:07;;;;;;;6.40;1.58;;;1.80;83.30;;;;;;4184608;28;20118;-86
2022/12/24 01:30:25;;;;;;;7.30;1.63;;;1.70;83.30;;;;;;4184070;28;20078;-86
2022/12/24 01:32:44;;;;;;;7.40;2.03;;;1.70;83.10;;;;;;4184649;28;20082;-86
2022/12/24 01:35:04;;;;;;;10.55;2.08;;;1.70;83.10;;;;;;4188842;28;20059;-87
2022/12/24 01:37:24;;;;;;;8.52;1.65;;;1.70;82.80;;;;;;4182547;28;20090;-86
2022/12/24 01:39:43;;;;;;;6.85;1.95;;;1.70;82.70;;;;;;4184121;28;20097;-87
2022/12/24 01:44:53;;;;;;;6.20;2.10;;;1.60;82.50;;;;;;4183221;28;20044;-87
2022/12/24 01:47:26;;;;;;;4.68;1.80;;;1.70;82.40;;;;;;4184145;28;20078;-87
2022/12/24 01:50:13;;;;;;;6.90;2.00;;;1.70;82.10;;;;;;4183917;28;20475;-87
2022/12/24 01:52:34;;;;;;;19.33;2.28;;;1.70;81.80;;;;;;4185551;28;20289;-88
2022/12/24 01:54:59;;;;;;;6.88;2.20;;;1.70;81.90;;;;;;4187359;28;20078;-88
2022/12/24 01:57:23;;;;;;;4.93;2.22;;;1.60;82.00;;;;;;4169871;28;20051;-87
2022/12/24 01:59:48;;;;;;;11.68;2.13;;;1.70;82.20;;;;;;4184234;28;20040;-87
2022/12/24 02:02:08;;;;;;;13.48;2.38;;;1.70;82.20;;;;;;4187297;28;20043;-88
2022/12/24 02:04:41;;;;;;;9.55;2.53;;;1.60;82.20;;;;;;4184800;28;20109;-87
2022/12/24 02:07:00;;;;;;;8.45;2.78;;;1.60;82.30;;;;;;4185912;28;20043;-86
2022/12/24 02:09:20;;;;;;;10.80;2.88;;;1.60;82.50;;;;;;4185578;28;20436;-87
2022/12/24 02:11:42;;;;;;;10.00;2.80;;;1.60;82.60;;;;;;4184354;28;20160;-87
2022/12/24 02:14:02;;;;;;;10.07;2.85;;;1.60;82.60;;;;;;4178934;28;20083;-87
2022/12/24 02:16:55;;;;;;;9.43;2.85;;;1.70;82.50;;;;;;4188554;28;20543;-87
2022/12/24 02:19:34;;;;;;;11.07;3.17;;;1.60;82.60;;;;;;4188294;28;20174;-88
2022/12/24 02:22:17;;;;;;;7.75;2.47;;;1.60;82.50;;;;;;4187454;28;20546;-88
2022/12/24 02:25:14;;;;;;;7.72;3.00;;;1.60;82.50;;;;;;4183988;28;20115;-87
2022/12/24 02:28:04;;;;;;;8.60;2.38;;;1.60;82.60;;;;;;4185617;28;20267;-88
2022/12/24 02:30:37;;;;;;;11.98;2.72;;;1.60;82.50;;;;;;4187895;28;20036;-88
2022/12/24 02:33:23;;;;;;;10.20;2.88;;;1.60;82.90;;;;;;4183349;28;20554;-87
2022/12/24 02:35:54;;;;;;;11.10;3.00;;;1.60;82.60;;;;;;4183016;28;20432;-88
2022/12/24 02:38:21;;;;;;;9.75;2.63;;;1.70;82.80;;;;;;4184813;28;20401;-88
2022/12/24 02:40:46;;;;;;;12.82;2.78;;;1.60;82.80;;;;;;4183839;28;20087;-87
2022/12/24 02:43:14;;;;;;;8.32;2.60;;;1.60;82.80;;;;;;4196211;28;20081;-88
2022/12/24 02:45:35;;;;;;;13.30;2.88;;;1.60;82.80;;;;;;4183671;28;20043;-88
2022/12/24 02:47:56;;;;;;;8.88;2.70;;;1.60;83.00;;;;;;4185348;28;20118;-88
2022/12/24 02:50:16;;;;;;;9.27;2.47;;;1.50;83.00;;;;;;4179174;28;20031;-87
2022/12/24 02:52:38;;;;;;;6.90;2.90;;;1.60;83.10;;;;;;4180193;28;20051;-88
2022/12/24 02:55:01;;;;;;;6.28;2.42;;;1.50;83.20;;;;;;4181389;28;20062;-87
2022/12/24 02:57:47;;;;;;;6.88;2.40;;;1.60;83.40;;;;;;4196078;28;20527;-88
2022/12/24 03:00:13;;;;;;;9.15;2.85;;;1.60;83.00;;;;;;4177687;28;20071;-87
2022/12/24 03:02:50;;;;;;;8.27;2.63;;;1.70;83.00;;;;;;4179873;28;20456;-87
2022/12/24 03:05:27;;;;;;;11.38;2.58;;;1.70;82.90;;;;;;4182734;28;20094;-88
2022/12/24 03:08:11;;;;;;;8.57;2.70;;;1.70;82.80;;;;;;4182891;28;20037;-88
2022/12/24 03:10:45;;;;;;;9.52;3.17;;;1.70;82.80;;;;;;4180479;28;20470;-88
2022/12/24 03:13:16;;;;;;;15.10;3.20;;;1.70;82.80;;;;;;4185720;28;20105;-88
2022/12/24 03:15:37;;;;;;;11.00;3.50;;;1.70;83.10;;;;;;4181165;28;20028;-87
2022/12/24 03:18:01;;;;;;;6.20;2.58;;;1.70;83.10;;;;;;4183344;28;20485;-87
2022/12/24 03:20:37;;;;;;;10.20;3.17;;;1.70;83.20;;;;;;4182122;28;20108;-88
2022/12/24 03:22:57;;;;;;;5.88;2.60;;;1.70;83.00;;;;;;4183879;28;20093;-88
2022/12/24 03:25:16;;;;;;;9.38;3.00;;;1.80;83.00;;;;;;4183637;28;20076;-88
2022/12/24 03:27:38;;;;;;;9.25;3.08;;;1.80;83.00;;;;;;4180116;28;20997;-88
2022/12/24 03:29:57;;;;;;;11.48;3.00;;;1.80;83.00;;;;;;4181739;28;20039;-87
2022/12/24 03:32:23;;;;;;;8.57;2.95;;;1.80;83.10;;;;;;4180227;28;20067;-88
2022/12/24 03:34:42;;;;;;;10.60;2.90;;;1.80;83.00;;;;;;4180396;28;20035;-87
2022/12/24 03:37:02;;;;;;;9.75;3.15;;;1.80;82.90;;;;;;4179462;28;22082;-88
2022/12/24 03:39:22;;;;;;;7.65;2.63;;;1.90;83.00;;;;;;4184658;28;20039;-89
2022/12/24 03:41:41;;;;;;;7.18;2.80;;;1.90;82.90;;;;;;4179281;28;20664;-88
2022/12/24 03:44:00;;;;;;;9.48;3.00;;;1.90;82.90;;;;;;4179467;28;20058;-87
2022/12/24 03:46:19;;;;;;;12.48;3.17;;;2.00;82.90;;;;;;4185686;28;20071;-88
2022/12/24 03:48:39;;;;;;;11.40;3.10;;;1.90;82.80;;;;;;4185505;28;20074;-88
2022/12/24 03:50:58;;;;;;;9.05;2.90;;;2.00;82.80;;;;;;4182395;28;20091;-87
2022/12/24 03:53:17;;;;;;;11.18;2.88;;;1.90;83.50;;;;;;4181503;28;20031;-87
2022/12/24 03:55:37;;;;;;;13.32;3.20;;;2.00;82.80;;;;;;4180278;28;20543;-88
2022/12/24 03:57:57;;;;;;;12.20;3.63;;;2.00;82.70;;;;;;4180766;28;20139;-88
2022/12/24 04:00:17;;;;;;;11.05;3.42;;;1.90;82.70;;;;;;4178505;28;20472;-87
2022/12/24 04:02:36;;;;;;;15.07;3.63;;;2.00;82.80;;;;;;4184924;28;20078;-88
2022/12/24 04:04:55;;;;;;;9.73;3.17;;;2.00;82.70;;;;;;4180579;28;20511;-86
2022/12/24 04:07:14;;;;;;;11.82;3.30;;;2.00;82.70;;;;;;4180924;28;20040;-87
2022/12/24 04:09:35;;;;;;;6.15;2.90;;;2.00;82.70;;;;;;4180683;28;20102;-87
2022/12/24 04:11:54;;;;;;;7.00;3.08;;;2.10;82.60;;;;;;4184168;28;20691;-87
2022/12/24 04:14:13;;;;;;;12.50;4.00;;;2.10;82.60;;;;;;4183667;28;20059;-87
2022/12/24 04:16:32;;;;;;;12.35;3.72;;;2.10;82.60;;;;;;4180005;28;20024;-87
2022/12/24 04:18:51;;;;;;;11.10;3.53;;;2.10;82.60;;;;;;4183611;28;20058;-87
2022/12/24 04:21:10;;;;;;;6.28;3.15;;;2.10;82.60;;;;;;4178793;28;20475;-86
2022/12/24 04:23:31;;;;;;;10.10;3.75;;;2.10;82.50;;;;;;4187733;28;20050;-87
2022/12/24 04:25:51;;;;;;;15.93;3.97;;;2.10;82.50;;;;;;4185313;28;20040;-87
2022/12/24 04:28:10;;;;;;;14.18;3.80;;;2.10;82.60;;;;;;4187898;28;20404;-87
2022/12/24 04:30:30;;;;;;;11.68;4.20;;;2.20;82.60;;;;;;4181459;28;20039;-87
2022/12/24 04:32:46;;;;;;;7.85;3.40;;;2.20;82.60;;;;;;4180642;28;20081;-87
2022/12/24 04:35:05;;;;;;;10.50;3.90;;;2.10;82.50;;;;;;4185838;28;20032;-86
2022/12/24 04:37:24;;;;;;;14.13;3.97;;;2.10;82.70;;;;;;4188019;28;20515;-87
2022/12/24 04:39:44;;;;;;;17.58;4.60;;;2.10;82.80;;;;;;4183388;28;20058;-87
2022/12/24 04:42:03;;;;;;;17.05;4.85;;;2.10;82.80;;;;;;4184118;28;20395;-87
2022/12/24 04:44:22;;;;;;;11.73;4.38;;;2.10;82.80;;;;;;4188553;28;20099;-87
2022/12/24 04:46:41;;;;;;;10.88;4.22;;;2.10;83.00;;;;;;4188531;28;20054;-88
2022/12/24 04:49:00;;;;;;;11.30;3.92;;;2.10;82.90;;;;;;4186300;28;20085;-87
2022/12/24 04:51:20;;;;;;;11.52;3.55;;;2.20;83.00;;;;;;4185765;28;20412;-87
2022/12/24 04:53:41;;;;;;;15.32;3.88;;;2.20;82.90;;;;;;4187652;28;20044;-87
2022/12/24 04:56:01;;;;;;;9.70;3.50;;;2.20;82.80;;;;;;4183369;28;20036;-87
2022/12/24 04:58:20;;;;;;;10.43;3.83;;;2.20;82.80;;;;;;4188492;28;20032;-87
2022/12/24 05:00:40;;;;;;;8.85;3.25;;;2.30;82.80;;;;;;4182453;28;20137;-87
2022/12/24 05:02:59;;;;;;;8.23;3.20;;;2.30;82.70;;;;;;4185852;28;20047;-88
2022/12/24 05:05:18;;;;;;;11.90;3.72;;;2.30;82.70;;;;;;4183116;28;20044;-88
2022/12/24 05:07:38;;;;;;;10.35;3.83;;;2.20;82.60;;;;;;4186557;28;20067;-88
2022/12/24 05:09:57;;;;;;;8.15;3.08;;;2.30;82.70;;;;;;4185556;28;20102;-86
2022/12/24 05:12:16;;;;;;;9.93;3.53;;;2.30;82.80;;;;;;4188795;28;20074;-88
2022/12/24 05:14:35;;;;;;;13.40;3.78;;;2.30;82.70;;;;;;4187285;28;20039;-87
2022/12/24 05:16:54;;;;;;;10.30;3.70;;;2.40;82.80;;;;;;4187973;28;20032;-88
2022/12/24 05:19:13;;;;;;;12.77;3.30;;;2.30;82.80;;;;;;4188548;28;20110;-88
2022/12/24 05:21:32;;;;;;;13.48;3.17;;;2.30;82.80;;;;;;4181899;28;20550;-87
2022/12/24 05:26:43;;;;;;;7.13;2.83;;;2.40;82.70;;;;;;4180387;28;20040;-87
2022/12/24 05:29:04;;;;;;;10.20;3.43;;;2.40;82.50;;;;;;4183832;28;20039;-89
2022/12/24 05:31:25;;;;;;;11.38;3.33;;;2.30;82.50;;;;;;4190162;28;20339;-87
2022/12/24 05:33:45;;;;;;;12.68;3.22;;;2.30;82.40;;;;;;4200270;28;20080;-88
2022/12/24 05:36:05;;;;;;;6.50;2.72;;;2.40;82.50;;;;;;4204914;28;20187;-86
2022/12/24 05:38:24;;;;;;;12.77;3.40;;;2.30;82.50;;;;;;4201791;28;20024;-86
2022/12/24 05:40:43;;;;;;;9.23;3.25;;;2.30;82.60;;;;;;4194038;28;20082;-86
2022/12/24 05:43:02;;;;;;;6.90;2.85;;;2.30;82.60;;;;;;4186226;28;20043;-87
2022/12/24 05:45:21;;;;;;;11.57;3.47;;;2.40;82.60;;;;;;4182962;28;20086;-88
2022/12/24 05:47:40;;;;;;;8.60;3.25;;;2.40;82.50;;;;;;4196648;28;20123;-88
2022/12/24 05:50:00;;;;;;;14.43;3.13;;;2.40;82.60;;;;;;4185595;28;20101;-88
2022/12/24 05:52:19;;;;;;;10.35;2.35;;;2.40;82.50;;;;;;4183086;28;20424;-88
2022/12/24 05:54:38;;;;;;;14.35;3.10;;;2.50;82.60;;;;;;4185961;28;20023;-89
2022/12/24 05:56:57;;;;;;;7.05;3.10;;;2.50;82.50;;;;;;4190710;28;20047;-87
2022/12/24 05:59:16;;;;;;;12.60;3.20;;;2.50;82.60;;;;;;4184221;28;20076;-86
2022/12/24 06:01:35;;;;;;;7.80;3.00;;;2.40;82.50;;;;;;4195289;28;20036;-87
2022/12/24 06:03:56;;;;;;;13.57;3.47;;;2.50;82.60;;;;;;4203665;28;20101;-87
2022/12/24 06:06:19;;;;;;;8.38;3.30;;;2.50;82.60;;;;;;4208309;28;20022;-86
2022/12/24 06:08:40;;;;;;;13.20;4.05;;;2.50;82.70;;;;;;4206017;28;20030;-88
2022/12/24 06:11:07;;;;;;;7.25;3.17;;;2.50;82.80;;;;;;4179983;28;20047;-85
2022/12/24 06:13:27;;;;;;;9.88;4.18;;;2.50;82.70;;;;;;4180447;28;20099;-86
2022/12/24 06:15:43;;;;;;;9.75;3.80;;;2.50;82.70;;;;;;4180461;28;20090;-86
2022/12/24 06:18:02;;;;;;;9.82;3.55;;;2.60;82.80;;;;;;4184185;28;20249;-86
2022/12/24 06:20:21;;;;;;;7.47;3.22;;;2.50;82.80;;;;;;4179046;28;20036;-86
2022/12/24 06:22:41;;;;;;;7.15;3.35;;;2.60;82.80;;;;;;4183636;28;20547;-87
2022/12/24 06:25:00;;;;;;;12.40;4.10;;;2.60;82.80;;;;;;4180339;28;20040;-87
2022/12/24 06:27:19;;;;;;;15.30;4.43;;;2.60;82.80;;;;;;4182037;28;20099;-86
2022/12/24 06:29:38;;;;;;;9.65;3.85;;;2.60;82.90;;;;;;4180118;28;20447;-85
2022/12/24 06:31:57;;;;;;;13.18;4.15;;;2.60;83.10;;;;;;4180566;28;20044;-86
2022/12/24 06:34:16;;;;;;;13.55;4.80;;;2.50;82.90;;;;;;4180839;28;20082;-87
2022/12/24 06:36:35;;;;;;;11.88;4.20;;;2.60;83.10;;;;;;4182779;28;20036;-87
2022/12/24 06:38:54;;;;;;;8.77;4.05;;;2.60;83.00;;;;;;4183060;28;20159;-85
2022/12/24 06:41:14;;;;;;;8.95;3.63;;;2.60;82.90;;;;;;4183589;28;20089;-86
2022/12/24 06:43:34;;;;;;;9.55;3.67;;;2.60;82.80;;;;;;4181651;28;20047;-86
2022/12/24 06:45:53;;;;;;;12.52;3.38;;;2.60;82.70;;;;;;4180884;28;20087;-86
2022/12/24 06:48:14;;;;;;;8.27;3.58;;;2.70;82.70;;;;;;4183250;28;20118;-86
2022/12/24 06:50:33;;;;;;;10.65;4.22;;;2.70;82.60;;;;;;4196553;28;20097;-87
2022/12/24 06:52:52;;;;;;;10.40;4.45;;;2.80;82.60;;;;;;4181549;28;20061;-87
2022/12/24 06:55:12;;;;;;;9.43;3.80;;;2.70;82.50;;;;;;4182240;28;20094;-86
2022/12/24 06:57:31;;;;;;;11.85;3.80;;;2.70;82.50;;;;;;4181957;28;20040;-86
2022/12/24 06:59:51;;;;;;;11.30;3.90;;;2.70;82.40;;;;;;4186468;28;20039;-85
2022/12/24 07:02:10;;;;;;;9.10;3.65;;;2.80;82.60;;;;;;4184330;28;20554;-86
2022/12/24 07:04:29;;;;;;;11.40;4.30;;;2.70;82.40;;;;;;4175615;28;20170;-87
2022/12/24 07:06:48;;;;;;;9.65;3.50;;;2.70;82.40;;;;;;4184673;28;20071;-87
2022/12/24 07:09:12;;;;;;;10.85;4.07;;;2.70;82.50;;;;;;4182131;28;20471;-85
2022/12/24 07:11:31;;;;;;;;;;;2.70;82.60;;;;;;4179664;28;20094;-86
2022/12/24 07:13:50;;;;;;;13.60;4.15;;;2.70;82.70;;;;;;4174786;28;20419;-87
2022/12/24 07:16:10;;;;;;;11.68;4.25;;;2.70;82.70;;;;;;4183561;28;20507;-86
2022/12/24 07:18:29;;;;;;;17.52;3.95;;;2.70;82.70;;;;;;4173603;28;20078;-87
2022/12/24 07:20:48;;;;;;;14.07;4.15;;;2.70;82.70;;;;;;4178045;28;20043;-86
2022/12/24 07:23:07;;;;;;;16.40;4.07;;;2.70;82.70;;;;;;4180738;28;20091;-87
2022/12/24 07:25:26;;;;;;;11.75;4.72;;;2.70;82.80;;;;;;4181921;28;20036;-87
2022/12/24 07:27:45;;;;;;;9.82;4.20;;;2.70;82.90;;;;;;4187559;28;20040;-87
2022/12/24 07:30:05;;;;;;;10.68;3.85;;;2.70;83.00;;;;;;4187584;28;20048;-85
2022/12/24 07:32:24;;;;;;;11.57;4.05;;;2.70;83.00;;;;;;4184286;28;20138;-87
2022/12/24 07:34:43;;;;;;;15.57;4.53;;;2.70;83.10;;;;;;4184341;28;20048;-86
2022/12/24 07:37:02;;;;;;;15.23;4.90;;;2.80;83.20;;;;;;4181900;28;20043;-87
2022/12/24 07:39:21;;;;;;;10.27;4.03;;;2.70;83.00;;;;;;4183412;28;20048;-86
2022/12/24 07:41:40;;;;;;;10.90;4.68;;;2.80;83.10;;;;;;4184499;28;20062;-88
2022/12/24 07:43:59;;;;;;;14.18;5.93;;;2.80;83.00;;;;;;4181193;28;20075;-86
2022/12/24 07:46:18;;;;;;;13.90;5.28;;;2.80;83.00;;;;;;4185081;28;20447;-88
2022/12/24 07:48:37;;;;;;;23.40;5.63;;;2.80;83.10;;;;;;4179699;28;20120;-87
2022/12/24 07:50:57;;;;;;;17.17;4.80;;;2.70;83.10;;;;;;4180633;28;20091;-87
2022/12/24 07:53:16;;;;;;;18.77;5.53;;;2.80;83.20;;;;;;4182528;28;20052;-86
2022/12/24 07:55:35;;;;;;;10.48;5.30;;;2.70;83.10;;;;;;4183680;28;20043;-87
2022/12/24 07:57:54;;;;;;;13.52;5.10;;;2.80;83.20;;;;;;4185219;28;20036;-87
2022/12/24 08:00:14;;;;;;;13.13;5.28;;;2.80;83.10;;;;;;4185224;28;20046;-87
2022/12/24 08:02:35;;;;;;;13.68;4.75;;;2.80;83.10;;;;;;4191549;28;20531;-87
2022/12/24 08:04:54;;;;;;;11.93;5.30;;;2.80;83.10;;;;;;4190264;28;20027;-87
2022/12/24 08:07:13;;;;;;;17.92;5.95;;;2.80;83.20;;;;;;4184288;28;20040;-87
2022/12/24 08:09:35;;;;;;;22.30;5.53;;;2.80;83.20;;;;;;4190228;28;20052;-87
2022/12/24 08:11:55;;;;;;;12.07;5.35;;;2.80;83.20;;;;;;4185451;28;20044;-87
2022/12/24 08:14:14;;;;;;;16.38;5.32;;;2.80;83.40;;;;;;4191117;28;20059;-88
2022/12/24 08:16:33;;;;;;;15.93;5.65;;;2.80;83.30;;;;;;4189233;28;20071;-87
2022/12/24 08:18:52;;;;;;;12.90;5.80;;;2.80;83.30;;;;;;4181831;28;20124;-87
2022/12/24 08:21:11;;;;;;;16.50;5.50;;;2.80;83.50;;;;;;4179005;28;20071;-88
2022/12/24 08:23:31;;;;;;;20.55;5.85;;;2.70;83.70;;;;;;4186343;28;20098;-87
2022/12/24 08:25:50;;;;;;;13.05;5.45;;;2.80;83.80;;;;;;4182954;28;20071;-86
2022/12/24 08:28:09;;;;;;;13.05;5.20;;;2.80;83.70;;;;;;4173341;28;20044;-87
2022/12/24 08:30:29;;;;;;;14.45;5.38;;;2.80;83.80;;;;;;4179523;28;20087;-88
2022/12/24 08:32:48;;;;;;;16.30;5.35;;;2.80;83.80;;;;;;4182309;28;20114;-86
2022/12/24 08:35:08;;;;;;;11.93;5.22;;;2.80;83.80;;;;;;4180059;28;20039;-87
2022/12/24 08:37:27;;;;;;;18.05;5.20;;;2.80;83.80;;;;;;4186155;28;20035;-86
2022/12/24 08:39:46;;;;;;;13.63;4.82;;;2.90;83.80;;;;;;4186585;28;20139;-86
2022/12/24 08:42:05;;;;;;;15.30;4.60;;;2.90;83.80;;;;;;4185908;28;20040;-87
2022/12/24 08:44:24;;;;;;;15.02;5.40;;;2.90;83.80;;;;;;4188108;28;20171;-86
2022/12/24 08:46:43;;;;;;;10.63;5.22;;;3.00;83.70;;;;;;4187114;28;20048;-86
2022/12/24 08:49:02;;;;;;;9.60;4.70;;;3.00;83.60;;;;;;4184563;28;20446;-87
2022/12/24 08:51:21;;;;;;;14.60;5.80;;;3.00;83.60;;;;;;4181663;28;20153;-87
2022/12/24 08:53:41;;;;;;;14.02;5.10;;;3.00;83.60;;;;;;4190137;28;20047;-87
2022/12/24 08:56:05;;;;;;;14.95;5.38;;;3.10;83.70;;;;;;4183579;28;20039;-88
2022/12/24 08:58:24;;;;;;;13.95;5.00;;;3.10;83.50;;;;;;4183499;28;20129;-87
2022/12/24 09:00:43;;;;;;;12.48;4.72;;;3.10;83.50;;;;;;4183028;28;20063;-87
2022/12/24 09:03:02;;;;;;;14.05;5.20;;;3.30;83.50;;;;;;4185253;28;20051;-87
2022/12/24 09:05:21;;;;;;;13.00;5.80;;;3.20;83.40;;;;;;4189589;28;20056;-87
2022/12/24 09:07:40;;;;;;;11.57;5.40;;;3.20;83.40;;;;;;4187094;28;20075;-86
2022/12/24 09:09:59;;;;;;;17.80;5.97;;;3.20;83.40;;;;;;4186822;28;20043;-87
2022/12/24 09:12:18;;;;;;;17.88;5.55;;;3.30;83.30;;;;;;4183960;28;20044;-86
2022/12/24 09:14:37;;;;;;;11.45;6.28;;;3.40;83.30;;;;;;4185525;28;20106;-87
2022/12/24 09:16:57;;;;;;;15.00;6.82;;;3.30;83.30;;;;;;4186512;28;20066;-86
2022/12/24 09:19:16;;;;;;;18.95;7.70;;;3.30;83.20;;;;;;4187878;28;20064;-86
2022/12/24 09:21:35;;;;;;;17.55;7.78;;;3.30;83.30;;;;;;4184823;28;20082;-86
2022/12/24 09:23:54;;;;;;;23.02;7.15;;;3.30;83.30;;;;;;4181161;28;20396;-86
2022/12/24 09:26:21;;;;;;;24.20;7.68;;;3.30;83.30;;;;;;4182818;28;20160;-86
2022/12/24 09:28:40;;;;;;;19.65;7.28;;;3.30;83.40;;;;;;4188138;28;20133;-87
2022/12/24 09:31:02;;;;;;;17.17;6.95;;;3.40;83.40;;;;;;4166822;28;20111;-86
2022/12/24 09:33:21;;;;;;;19.35;7.25;;;3.40;83.50;;;;;;4187821;28;20657;-86
2022/12/24 09:35:40;;;;;;;19.90;7.07;;;3.40;83.30;;;;;;4174959;28;20056;-86
2022/12/24 09:38:02;;;;;;;20.48;6.53;;;3.40;83.30;;;;;;4184233;28;20095;-87
2022/12/24 09:40:27;;;;;;;23.15;7.15;;;3.40;83.30;;;;;;4176720;28;20186;-86
2022/12/24 09:42:53;;;;;;;16.42;6.45;;;3.50;83.30;;;;;;4179636;28;20258;-86
2022/12/24 09:45:19;;;;;;;13.63;6.25;;;3.50;83.30;;;;;;4185628;28;20071;-87
2022/12/24 09:47:48;;;;;;;16.92;6.10;;;3.50;83.30;;;;;;4186594;28;20050;-87
2022/12/24 09:50:40;;;;;;;10.73;4.93;;;3.50;83.40;;;;;;4182878;28;20447;-86
2022/12/24 09:53:05;;;;;;;12.73;5.53;;;3.50;83.30;;;;;;4182141;28;20079;-87
2022/12/24 09:55:24;;;;;;;16.67;5.75;;;3.60;83.40;;;;;;4180766;28;20091;-86
2022/12/24 09:57:46;;;;;;;8.57;4.47;;;3.60;83.40;;;;;;4187102;28;20044;-86
2022/12/24 10:00:15;;;;;;;13.18;5.53;;;3.60;83.40;;;;;;4189197;28;20091;-86
2022/12/24 10:02:35;;;;;;;11.73;5.50;;;3.60;83.40;;;;;;4187240;28;20044;-86
2022/12/24 10:04:54;;;;;;;14.18;6.03;;;3.70;83.40;;;;;;4184555;28;20078;-85
2022/12/24 10:07:22;;;;;;;15.93;5.43;;;3.70;83.40;;;;;;4188681;28;20042;-86
2022/12/24 10:10:06;;;;;;;13.02;4.85;;;3.80;83.50;;;;;;4182402;28;20101;-85
2022/12/24 10:12:37;;;;;;;16.98;6.03;;;3.80;83.50;;;;;;4186757;28;20092;-86
2022/12/24 10:14:59;;;;;;;11.05;4.70;;;3.80;83.40;;;;;;4185979;28;20048;-86
2022/12/24 10:17:21;;;;;;;12.75;5.13;;;3.80;83.30;;;;;;4183406;28;20035;-86
2022/12/24 10:20:14;;;;;;;14.15;5.43;;;3.90;83.50;;;;;;4186890;28;20054;-85
2022/12/24 10:23:05;;;;;;;19.48;4.65;;;3.90;83.50;;;;;;4180990;28;20496;-86
2022/12/24 10:25:20;;;;;;;11.80;4.32;;;3.90;83.50;;;;;;4164868;28;20056;-86
2022/12/24 10:27:27;;;;;;;13.10;4.88;;;3.90;83.40;;;;;;4183638;28;20493;-86
2022/12/24 10:29:39;;;;;;;13.63;4.60;;;4.00;83.40;;;;;;4181817;28;20028;-86
2022/12/24 10:31:51;;;;;;;18.00;4.50;;;4.00;83.30;;;;;;4179760;28;20456;-86
2022/12/24 10:33:58;;;;;;;7.95;3.55;;;4.00;84.00;;;;;;4177244;28;20287;-86
2022/12/24 10:35:59;;;;;;;12.10;4.28;;;4.10;83.20;;;;;;4184456;28;20032;-86
2022/12/24 10:38:03;;;;;;;7.47;4.05;;;4.10;83.20;;;;;;4183728;28;20054;-87
2022/12/24 10:40:04;;;;;;;9.77;4.28;;;4.10;83.20;;;;;;4187576;28;20024;-85
2022/12/24 10:42:06;;;;;;;13.07;4.45;;;4.10;83.10;;;;;;4180660;28;20028;-87
2022/12/24 10:44:18;;;;;;;18.90;5.88;;;4.10;83.10;;;;;;4181377;28;20028;-86
2022/12/24 10:46:28;;;;;;;16.30;4.70;;;4.10;83.10;;;;;;4170891;28;20770;-87
2022/12/24 10:48:39;;;;;;;13.80;4.43;;;4.10;83.00;;;;;;4181721;28;20036;-86
2022/12/24 10:50:49;;;;;;;10.43;5.03;;;4.10;83.00;;;;;;4176950;28;20021;-86
2022/12/24 10:52:54;;;;;;;9.05;4.03;;;4.10;83.50;;;;;;4186085;28;20066;-87
2022/12/24 10:55:10;;;;;;;10.90;3.95;;;4.20;83.00;;;;;;4161649;28;20071;-87
2022/12/24 10:57:24;;;;;;;15.50;4.47;;;4.20;83.00;;;;;;4178286;28;20017;-87
2022/12/24 10:59:38;;;;;;;10.00;4.45;;;4.20;82.90;;;;;;4171394;28;20423;-88
2022/12/24 11:01:47;;;;;;;13.10;5.13;;;4.20;82.90;;;;;;4175646;28;20096;-87
2022/12/24 11:04:00;;;;;;;9.13;4.53;;;4.20;82.80;;;;;;4181110;28;20116;-86
2022/12/24 11:06:14;;;;;;;10.50;4.43;;;4.20;82.90;;;;;;4177030;28;20033;-88
2022/12/24 11:08:24;;;;;;;;;;;4.20;82.80;;;;;;4178489;28;20024;-87
2022/12/24 11:10:38;;;;;;;8.95;3.55;;;4.30;83.10;;;;;;4154350;28;20475;-85
2022/12/24 11:12:59;;;;;;;9.43;4.30;;;4.40;82.80;;;;;;4167582;28;20024;-86
2022/12/24 11:15:25;;;;;;;10.90;4.63;;;4.30;82.80;;;;;;4167702;28;20142;-86
2022/12/24 11:17:26;;;;;;;9.68;4.55;;;4.30;82.80;;;;;;4173072;28;20545;-87
2022/12/24 11:19:33;;;;;;;14.35;4.75;;;4.30;82.80;;;;;;4169645;28;20032;-87
2022/12/24 11:21:37;;;;;;;13.82;4.28;;;4.30;82.70;;;;;;4159139;28;20052;-88
2022/12/24 11:23:38;;;;;;;15.25;6.45;;;4.30;82.70;;;;;;4172827;28;20496;-89
2022/12/24 11:25:40;;;;;;;12.25;6.63;;;4.30;82.70;;;;;;4177591;28;20040;-86
2022/12/24 11:27:46;;;;;;;11.07;5.70;;;4.30;82.70;;;;;;4171621;28;20052;-86
2022/12/24 11:29:46;;;;;;;18.33;7.78;;;4.40;82.80;;;;;;4175147;28;20040;-86
2022/12/24 11:31:48;;;;;;;10.45;5.32;;;4.40;82.80;;;;;;4177157;28;20060;-86
2022/12/24 11:33:54;;;;;;;15.70;5.00;;;4.40;82.80;;;;;;4172380;28;20995;-86
2022/12/24 11:36:05;;;;;;;10.20;5.18;;;4.40;82.70;;;;;;4176590;28;20055;-86
2022/12/24 11:38:05;;;;;;;8.05;4.45;;;4.40;82.70;;;;;;4174250;28;20044;-86
2022/12/24 11:40:21;;;;;;;12.02;5.18;;;4.40;82.70;;;;;;4164476;28;20611;-86
2022/12/24 11:42:32;;;;;;;10.15;5.15;;;4.50;82.70;;;;;;4174242;28;20619;-86
2022/12/24 11:44:32;;;;;;;13.30;4.97;;;4.30;82.60;;;;;;4177329;28;20059;-86
2022/12/24 11:46:38;;;;;;;10.95;4.50;;;4.50;82.70;;;;;;4175946;28;20021;-87
2022/12/24 11:48:39;;;;;;;15.25;5.60;;;4.50;82.70;;;;;;4184044;28;20127;-86
2022/12/24 11:50:40;;;;;;;11.30;4.63;;;4.50;82.70;;;;;;4163495;28;20049;-86
2022/12/24 11:52:42;;;;;;;12.50;4.93;;;4.50;82.80;;;;;;4171437;28;20032;-88
2022/12/24 11:54:48;;;;;;;18.52;10.13;;;4.50;82.80;;;;;;4178462;28;20033;-88
2022/12/24 11:56:53;;;;;;;13.88;8.40;;;4.50;82.70;;;;;;4173346;28;20115;-87
2022/12/24 11:59:02;;;;;;;13.88;7.85;;;4.50;82.60;;;;;;4164458;28;20088;-86
2022/12/24 12:01:29;;;;;;;11.10;5.97;;;4.50;82.30;;;;;;4173654;28;20107;-87
2022/12/24 12:03:36;;;;;;;16.63;8.05;;;4.50;82.30;;;;;;4162090;28;20044;-86
2022/12/24 12:05:37;;;;;;;14.70;6.43;;;4.50;82.20;;;;;;4180026;28;20040;-86
2022/12/24 12:07:38;;;;;;;9.45;4.68;;;4.50;82.20;;;;;;4182990;28;20146;-86
2022/12/24 12:09:48;;;;;;;10.70;4.57;;;4.50;82.30;;;;;;4174501;28;20036;-88
2022/12/24 12:11:59;;;;;;;10.45;4.53;;;4.50;83.00;;;;;;4170359;28;20040;-88
2022/12/24 12:14:01;;;;;;;11.93;5.15;;;4.50;82.40;;;;;;4178448;28;20028;-85
2022/12/24 12:16:24;;;;;;;10.48;4.80;;;4.50;82.40;;;;;;4165571;28;20035;-85
2022/12/24 12:19:02;;;;;;;10.43;4.55;;;4.50;82.40;;;;;;4160624;28;20024;-86